Latest Weather Observations for Banana Bank

IDQ60801

Issued at 4:02 am EST Tuesday 31 May 2016 (issued every 30 minutes, with the page automatically refreshed every 10 minutes)

About weather observations | Map of weather stations | Latest weather observations for QLD | Other Formats
Station Details ID: 040925 Name: BANANA BANK NORTH BEACON Lat: -27.53 Lon: 153.33 Height: 7.0 m
Data from the previous 72 hours. | See also: Recent months for locations in Queensland
Date/Time
EST
Temp
°C
App
Temp
°C
Dew
Point
Rel
Hum
%
Delta-T
°C
Wind Press
QNH
hPa
Press
MSL
hPa
Rain
since 9 am
mm
Dir
 
Spd
km/h
Gust
km/h
Spd
kts
Gust
kts
31/04:00am - - - - - S 9 11 5 6 - - -
31/03:30am - - - - - SSW 9 11 5 6 - - -
31/03:00am - - - - - S 13 15 7 8 - - -
31/02:30am - - - - - S 9 11 5 6 - - -
31/02:00am - - - - - SSW 7 9 4 5 - - -
31/01:30am - - - - - S 11 13 6 7 - - -
31/01:00am - - - - - S 9 11 5 6 - - -
31/12:30am - - - - - S 7 9 4 5 - - -
31/12:00am - - - - - S 11 13 6 7 - - -
 
Date/Time
EST
Temp
°C
App
Temp
°C
Dew
Point
Rel
Hum
%
Delta-T
°C
Wind Press
QNH
hPa
Press
MSL
hPa
Rain
since 9 am
mm
Dir
 
Spd
km/h
Gust
km/h
Spd
kts
Gust
kts
30/11:30pm - - - - - SSW 7 11 4 6 - - -
30/11:00pm - - - - - SSW 9 11 5 6 - - -
30/10:30pm - - - - - S 9 11 5 6 - - -
30/10:00pm - - - - - S 6 7 3 4 - - -
30/09:30pm - - - - - ESE 6 6 3 3 - - -
30/09:00pm - - - - - E 6 6 3 3 - - -
30/08:30pm - - - - - ENE 4 4 2 2 - - -
30/08:00pm - - - - - ENE 4 6 2 3 - - -
30/07:30pm - - - - - ENE 7 7 4 4 - - -
30/07:00pm - - - - - ENE 6 7 3 4 - - -
30/06:30pm - - - - - ENE 9 9 5 5 - - -
30/06:00pm - - - - - ENE 9 9 5 5 - - -
30/05:30pm - - - - - ENE 7 9 4 5 - - -
30/05:00pm - - - - - E 9 11 5 6 - - -
30/04:30pm - - - - - ENE 7 9 4 5 - - -
30/04:00pm - - - - - ESE 6 7 3 4 - - -
30/03:30pm - - - - - ESE 2 4 1 2 - - -
30/03:00pm - - - - - ESE 2 6 1 3 - - -
30/02:30pm - - - - - CALM 0 0 0 0 - - -
30/02:00pm - - - - - CALM 0 0 0 0 - - -
30/01:30pm - - - - - CALM 0 0 0 0 - - -
30/01:00pm - - - - - CALM 0 0 0 0 - - -
30/12:30pm - - - - - CALM 0 0 0 0 - - -
30/12:00pm - - - - - SSW 2 6 1 3 - - -
30/11:30am - - - - - SSW 2 4 1 2 - - -
30/11:00am - - - - - ESE 2 4 1 2 - - -
30/10:30am - - - - - ESE 4 6 2 3 - - -
30/10:00am - - - - - CALM 0 0 0 0 - - -
30/09:30am - - - - - SSW 4 4 2 2 - - -
30/09:00am - - - - - S 4 6 2 3 - - -
30/08:30am - - - - - SSW 7 9 4 5 - - -
30/08:00am - - - - - SSW 7 9 4 5 - - -
30/07:30am - - - - - SW 7 9 4 5 - - -
30/07:00am - - - - - SW 9 11 5 6 - - -
30/06:30am - - - - - SSW 11 15 6 8 - - -
30/06:00am - - - - - SW 9 13 5 7 - - -
30/05:30am - - - - - SW 9 13 5 7 - - -
30/05:00am - - - - - SW 15 17 8 9 - - -
30/04:30am - - - - - SW 13 17 7 9 - - -
30/04:00am - - - - - SW 13 17 7 9 - - -
30/03:30am - - - - - SW 11 13 6 7 - - -
30/03:00am - - - - - SW 9 13 5 7 - - -
30/02:30am - - - - - SW 11 17 6 9 - - -
30/02:00am - - - - - SW 13 17 7 9 - - -
30/01:30am - - - - - SW 15 17 8 9 - - -
30/01:00am - - - - - WSW 17 20 9 11 - - -
30/12:30am - - - - - SW 15 17 8 9 - - -
30/12:00am - - - - - WSW 7 15 4 8 - - -
 
Date/Time
EST
Temp
°C
App
Temp
°C
Dew
Point
Rel
Hum
%
Delta-T
°C
Wind Press
QNH
hPa
Press
MSL
hPa
Rain
since 9 am
mm
Dir
 
Spd
km/h
Gust
km/h
Spd
kts
Gust
kts
29/11:30pm - - - - - S 7 9 4 5 - - -
29/11:00pm - - - - - WSW 9 17 5 9 - - -
29/10:30pm - - - - - SSW 4 7 2 4 - - -
29/10:00pm - - - - - CALM 0 0 0 0 - - -
29/09:30pm - - - - - SW 4 6 2 3 - - -
29/09:00pm - - - - - WSW 2 4 1 2 - - -
29/08:30pm - - - - - NE 4 6 2 3 - - -
29/08:00pm - - - - - ENE 6 7 3 4 - - -
29/07:30pm - - - - - ENE 6 7 3 4 - - -
29/07:00pm - - - - - NNE 6 6 3 3 - - -
29/06:30pm - - - - - ENE 7 11 4 6 - - -
29/06:00pm - - - - - ENE 11 15 6 8 - - -
29/05:30pm - - - - - E 13 15 7 8 - - -
29/05:00pm - - - - - E 15 17 8 9 - - -
29/04:30pm - - - - - E 13 15 7 8 - - -
29/04:00pm - - - - - NNE 7 9 4 5 - - -
29/03:30pm - - - - - NE 9 11 5 6 - - -
29/03:00pm - - - - - ENE 9 11 5 6 - - -
29/02:30pm - - - - - ENE 11 13 6 7 - - -
29/02:00pm - - - - - E 6 7 3 4 - - -
29/01:30pm - - - - - ESE 6 9 3 5 - - -
29/01:00pm - - - - - ESE 7 9 4 5 - - -
29/12:30pm - - - - - WSW 6 11 3 6 - - -
29/12:00pm - - - - - WSW 6 9 3 5 - - -
29/11:30am - - - - - W 11 19 6 10 - - -
29/11:00am - - - - - WSW 13 19 7 10 - - -
29/10:30am - - - - - WSW 9 17 5 9 - - -
29/10:00am - - - - - WSW 11 17 6 9 - - -
29/09:30am - - - - - WSW 19 28 10 15 - - -
29/09:00am - - - - - W 17 24 9 13 - - -
29/08:30am - - - - - WSW 15 20 8 11 - - -
29/08:00am - - - - - W 17 20 9 11 - - -
29/07:30am - - - - - W 17 24 9 13 - - -
29/07:00am - - - - - WSW 15 22 8 12 - - -
29/06:30am - - - - - WSW 17 22 9 12 - - -
29/06:00am - - - - - WSW 13 19 7 10 - - -
29/05:30am - - - - - W 9 17 5 9 - - -
29/05:00am - - - - - WNW 7 11 4 6 - - -
29/04:30am - - - - - WNW 9 13 5 7 - - -
29/04:00am - - - - - WSW 17 22 9 12 - - -
29/03:30am - - - - - WSW 19 28 10 15 - - -
29/03:00am - - - - - W 22 26 12 14 - - -
29/02:30am - - - - - W 17 22 9 12 - - -
29/02:00am - - - - - W 11 17 6 9 - - -
29/01:30am - - - - - WNW 17 22 9 12 - - -
29/01:00am - - - - - WNW 20 26 11 14 - - -
29/12:30am - - - - - WNW 20 26 11 14 - - -
29/12:00am - - - - - WNW 19 24 10 13 - - -
 
Date/Time
EST
Temp
°C
App
Temp
°C
Dew
Point
Rel
Hum
%
Delta-T
°C
Wind Press
QNH
hPa
Press
MSL
hPa
Rain
since 9 am
mm
Dir
 
Spd
km/h
Gust
km/h
Spd
kts
Gust
kts
28/11:30pm - - - - - WNW 15 24 8 13 - - -
28/11:00pm - - - - - WNW 19 24 10 13 - - -
28/10:30pm - - - - - W 15 20 8 11 - - -
28/10:00pm - - - - - WNW 20 24 11 13 - - -
28/09:30pm - - - - - WNW 20 24 11 13 - - -
28/09:00pm - - - - - WNW 22 30 12 16 - - -
28/08:30pm - - - - - WNW 24 30 13 16 - - -
28/08:00pm - - - - - WNW 19 28 10 15 - - -
28/07:30pm - - - - - W 17 24 9 13 - - -
28/07:00pm - - - - - W 20 28 11 15 - - -
28/06:30pm - - - - - W 26 35 14 19 - - -
28/06:00pm - - - - - W 33 43 18 23 - - -
28/05:30pm - - - - - W 33 43 18 23 - - -
28/05:00pm - - - - - W 30 39 16 21 - - -
28/04:30pm - - - - - W 32 41 17 22 - - -
28/04:00pm - - - - - W 33 41 18 22 - - -
28/03:30pm - - - - - W 32 43 17 23 - - -
28/03:18pm - - - - - WSW 32 52 17 28 - - -
28/03:00pm - - - - - W 32 48 17 26 - - -
28/02:33pm - - - - - W 37 57 20 31 - - -
28/02:30pm - - - - - W 35 46 19 25 - - -
28/02:00pm - - - - - W 39 50 21 27 - - -
28/01:30pm - - - - - W 33 43 18 23 - - -
28/01:00pm - - - - - W 28 35 15 19 - - -
28/12:30pm - - - - - W 26 39 14 21 - - -
28/12:00pm - - - - - W 17 28 9 15 - - -
28/11:30am - - - - - W 15 24 8 13 - - -
28/11:00am - - - - - W 13 20 7 11 - - -
28/10:30am - - - - - W 9 13 5 7 - - -
28/10:00am - - - - - W 15 20 8 11 - - -
28/09:30am - - - - - W 19 24 10 13 - - -
28/09:00am - - - - - W 19 24 10 13 - - -
28/08:30am - - - - - W 11 19 6 10 - - -
28/08:00am - - - - - W 17 19 9 10 - - -
28/07:30am - - - - - W 15 20 8 11 - - -
28/07:00am - - - - - W 15 20 8 11 - - -
28/06:30am - - - - - WNW 13 17 7 9 - - -
28/06:00am - - - - - W 13 17 7 9 - - -
28/05:30am - - - - - WSW 11 19 6 10 - - -
28/05:00am - - - - - WSW 15 22 8 12 - - -
28/04:30am - - - - - WSW 22 28 12 15 - - -

Other Formats:

Comma delimited format used in spreadsheet applications
http://www.bom.gov.au/fwo/IDQ60801/IDQ60801.94591.axf

JavaScript Object Notation format (JSON) in row-major order
http://www.bom.gov.au/fwo/IDQ60801/IDQ60801.94591.json